Flugplatz Dortmund

Bericht für EDLW

vom 26.06. um 20:50 UTC

Wind 6 kt aus 20°

Sichtweite 10 km oder mehr

keine Wolken

Temperatur 21.0°C

Taupunkt 15.0°C

Luftfeuchtigkeit 69%

Luftdruck 1025 hPa

EDLW 262050Z AUTO 02006KT 330V080 9999 // NCD 21/15 Q1025

Prognose für EDLW

vom 26.06. um 00:00 UTC

Zwischen 00:00 UTC und 00:00 UTC

Wind 6 kt aus 10°

Sichtweite 10 km oder mehr

keine signifikanten Wettererscheinungen

keine Wolken

TAF EDLW 261700Z 2618/2718 01006KT CAVOK
Impressum